Startpagina
METAR-TAF:

METAR-TAF

Vliegvelden :

Wellington, Nieuw-Zeeland

breedte: 41-20S, lengte: 174-48E, hoogte: 12 m

Actueel weer

Dit bericht is 20 minuten geleden gemaakt, om 07:30 UTC
Wind 8 kt uit het zuidzuidoosten
Temperatuur 10°C
Vochtigheid 82%
Druk 1016 hPa
Zicht 10 km of meer

METAR: NZWN 220730Z AUTO 16008KT 9999 NCD 10/07 Q1016 NOSIG

Tijdstip: 19:50 (07:50 UTC)

Verwachting

Dit bericht is 2 uur en het 42 minuten geleden gemaakt, om 05:08 UTC
Verwachting geldig van 22 om 06 UTC tot 23 om 06 UTC
Wind 12 kt uit het zuiden
Zicht 10 km of meer
Weinig wolken op 2000 ft
Wijzigt naar
van 22 om 11 UTC tot 22 om 13 UTC
Wind 8 kt uit het noordnoordoosten
Wijzigt naar
van 22 om 23 UTC tot 23 om 01 UTC
Wind 20 kt uit het noorden met uitschieters tot 30 kt

TAF: NZWN 220508Z 2206/2306 17012KT 9999 FEW020 BECMG 2211/2213 02008KT BECMG 2223/2301 36020G30KT

Waarnemingen en weersverwachtingen van meer dan 4000 vliegvelden (METAR en TAF).

De beschikbare stations zijn de gele en rode punten op de kaart.

Ga met uw muis naar het station om de naam te zien.

Klik dan om waarnemingen en weersverwachtingen te zien.

kaart wijzigen: klik op de groene knoppen met een zwart kruis om in te zoomen, op de groene knop met een streepje om uit te zoomen of op de groene pijlen voor aangrenzende kaarten.


METAR-TAF: